createdAt,value
2024-05-09T00:00:59.743Z,7.24
2024-05-09T00:02:01.378Z,7.19
2024-05-09T00:03:06.996Z,7.13
2024-05-09T00:04:08.925Z,7.07
2024-05-09T00:05:11.353Z,7.06
2024-05-09T00:06:13.492Z,7.05
2024-05-09T00:07:15.117Z,7.04
2024-05-09T00:08:16.955Z,7.03
2024-05-09T00:09:18.528Z,7.03
2024-05-09T00:10:28.786Z,7.05
2024-05-09T00:11:36.757Z,7.01
2024-05-09T00:12:38.424Z,6.95
2024-05-09T00:13:39.985Z,6.93
2024-05-09T00:14:41.552Z,6.91
2024-05-09T00:15:43.100Z,6.90
2024-05-09T00:16:44.693Z,6.86
2024-05-09T00:17:46.537Z,6.83
2024-05-09T00:18:48.348Z,6.81
2024-05-09T00:19:50.058Z,6.79
2024-05-09T00:20:51.886Z,6.78
2024-05-09T00:21:53.476Z,6.76
2024-05-09T00:22:55.178Z,6.73
2024-05-09T00:23:56.754Z,6.72
2024-05-09T00:24:58.346Z,6.80
2024-05-09T00:26:00.035Z,6.80
2024-05-09T00:27:01.670Z,6.78
2024-05-09T00:28:03.608Z,6.76
2024-05-09T00:29:05.221Z,6.74
2024-05-09T00:30:11.559Z,6.77
2024-05-09T00:31:16.105Z,6.77
2024-05-09T00:32:17.723Z,6.75
2024-05-09T00:33:19.551Z,6.73
2024-05-09T00:34:21.465Z,6.74
2024-05-09T00:35:23.298Z,6.74
2024-05-09T00:36:25.045Z,6.73
2024-05-09T00:37:26.622Z,6.72
2024-05-09T00:38:28.533Z,6.70
2024-05-09T00:39:30.127Z,6.70
2024-05-09T00:40:39.974Z,6.66
2024-05-09T00:41:43.841Z,6.62
2024-05-09T00:42:47.070Z,6.58
2024-05-09T00:43:48.702Z,6.55
2024-05-09T00:44:50.561Z,6.50
2024-05-09T00:45:53.628Z,6.47
2024-05-09T00:46:56.243Z,6.42
2024-05-09T00:48:01.560Z,6.37
2024-05-09T00:49:03.489Z,6.31
2024-05-09T00:50:09.900Z,6.28
2024-05-09T00:51:14.379Z,6.28
2024-05-09T00:52:16.451Z,6.27
2024-05-09T00:53:18.811Z,6.23
2024-05-09T00:54:21.356Z,6.22
2024-05-09T00:55:23.904Z,6.19
2024-05-09T00:56:25.700Z,6.18
2024-05-09T00:57:27.736Z,6.15
2024-05-09T00:58:30.573Z,6.17
2024-05-09T00:59:33.158Z,6.22
2024-05-09T01:00:39.314Z,6.23
2024-05-09T01:01:44.385Z,6.28
2024-05-09T01:02:46.212Z,6.24
2024-05-09T01:03:51.014Z,6.22
2024-05-09T01:04:53.628Z,6.19
2024-05-09T01:05:55.549Z,6.17
2024-05-09T01:06:57.402Z,6.16
2024-05-09T01:07:58.997Z,6.15
2024-05-09T01:09:00.717Z,6.15
2024-05-09T01:10:02.422Z,6.15
2024-05-09T01:11:04.509Z,6.09
2024-05-09T01:12:06.570Z,6.09
2024-05-09T01:13:08.179Z,6.06
2024-05-09T01:14:09.807Z,6.08
2024-05-09T01:15:11.393Z,6.05
2024-05-09T01:16:16.114Z,6.02
2024-05-09T01:17:17.944Z,6.00
2024-05-09T01:18:19.767Z,5.97
2024-05-09T01:19:30.234Z,5.96
2024-05-09T01:20:40.499Z,5.94
2024-05-09T01:21:44.838Z,5.90
2024-05-09T01:22:47.455Z,5.88
2024-05-09T01:23:49.240Z,5.86
2024-05-09T01:24:51.980Z,5.84
2024-05-09T01:25:53.717Z,5.81
2024-05-09T01:26:55.640Z,5.82
2024-05-09T01:27:57.195Z,5.82
2024-05-09T01:28:58.773Z,5.80
2024-05-09T01:30:00.411Z,5.80
2024-05-09T01:31:02.026Z,5.78
2024-05-09T01:32:04.860Z,5.77
2024-05-09T01:33:09.118Z,5.79
2024-05-09T01:34:12.587Z,5.75
2024-05-09T01:35:14.279Z,5.75
2024-05-09T01:36:15.881Z,5.73
2024-05-09T01:37:17.431Z,5.72
2024-05-09T01:38:19.914Z,5.72
2024-05-09T01:39:21.642Z,5.70
2024-05-09T01:40:33.294Z,5.70
2024-05-09T01:41:39.309Z,5.73
2024-05-09T01:42:41.177Z,5.72
2024-05-09T01:43:42.815Z,5.74
2024-05-09T01:44:44.409Z,5.74
2024-05-09T01:45:46.023Z,5.75
2024-05-09T01:46:47.638Z,5.76
2024-05-09T01:47:49.363Z,5.78
2024-05-09T01:48:51.319Z,5.81
2024-05-09T01:49:53.958Z,5.79
2024-05-09T01:50:55.586Z,5.76
2024-05-09T01:51:57.133Z,5.76
2024-05-09T01:52:58.742Z,5.75
2024-05-09T01:54:00.350Z,5.71
2024-05-09T01:55:05.672Z,5.70
2024-05-09T01:56:09.213Z,5.70
2024-05-09T01:57:10.820Z,5.71
2024-05-09T01:58:12.985Z,5.70
2024-05-09T01:59:14.649Z,5.70
2024-05-09T02:00:22.265Z,5.70
2024-05-09T02:01:31.205Z,5.67
2024-05-09T02:02:52.792Z,5.66
2024-05-09T02:03:54.601Z,5.64
2024-05-09T02:04:56.359Z,5.64
2024-05-09T02:05:58.109Z,5.68
2024-05-09T02:06:59.754Z,5.70
2024-05-09T02:08:01.429Z,5.67
2024-05-09T02:09:03.053Z,5.67
2024-05-09T02:10:10.963Z,5.62
2024-05-09T02:11:18.312Z,5.60
2024-05-09T02:12:19.966Z,5.59
2024-05-09T02:13:21.602Z,5.58
2024-05-09T02:14:23.349Z,5.57
2024-05-09T02:15:25.215Z,5.58
2024-05-09T02:16:26.749Z,5.60
2024-05-09T02:17:28.506Z,5.57
2024-05-09T02:18:30.347Z,5.57
2024-05-09T02:19:32.110Z,5.53
2024-05-09T02:20:36.739Z,5.51
2024-05-09T02:21:40.302Z,5.46
2024-05-09T02:22:41.887Z,5.42
2024-05-09T02:23:43.500Z,5.40
2024-05-09T02:24:45.090Z,5.42
2024-05-09T02:25:48.338Z,5.36
2024-05-09T02:26:49.974Z,5.36
2024-05-09T02:27:51.575Z,5.38
2024-05-09T02:28:53.429Z,5.40
2024-05-09T02:29:55.005Z,5.40
2024-05-09T02:30:56.543Z,5.38
2024-05-09T02:31:58.273Z,5.40
2024-05-09T02:33:00.453Z,5.41
2024-05-09T02:34:02.372Z,5.40
2024-05-09T02:35:04.347Z,5.38
2024-05-09T02:36:07.029Z,5.36
2024-05-09T02:37:08.619Z,5.41
2024-05-09T02:38:10.575Z,5.40
2024-05-09T02:39:12.377Z,5.38
2024-05-09T02:40:15.144Z,5.37
2024-05-09T02:41:23.108Z,5.38
2024-05-09T02:42:25.015Z,5.37
2024-05-09T02:43:26.686Z,5.37
2024-05-09T02:44:28.599Z,5.38
2024-05-09T02:45:30.318Z,5.38
2024-05-09T02:46:32.115Z,5.38
2024-05-09T02:47:33.881Z,5.38
2024-05-09T02:48:35.577Z,5.39
2024-05-09T02:49:37.406Z,5.40
2024-05-09T02:50:44.026Z,5.41
2024-05-09T02:51:45.841Z,5.41
2024-05-09T02:52:47.441Z,5.40
2024-05-09T02:53:49.080Z,5.40
2024-05-09T02:54:50.661Z,5.42
2024-05-09T02:55:52.246Z,5.40
2024-05-09T02:56:53.857Z,5.42
2024-05-09T02:57:55.398Z,5.38
2024-05-09T02:58:57.032Z,5.40
2024-05-09T02:59:58.597Z,5.47
2024-05-09T03:01:00.196Z,5.46
2024-05-09T03:02:01.857Z,5.51
2024-05-09T03:03:03.816Z,5.50
2024-05-09T03:04:05.665Z,5.47
2024-05-09T03:05:07.435Z,5.42
2024-05-09T03:06:09.016Z,5.42
2024-05-09T03:07:10.587Z,5.38
2024-05-09T03:08:12.528Z,5.34
2024-05-09T03:09:14.309Z,5.30
2024-05-09T03:10:22.264Z,5.33
2024-05-09T03:11:27.379Z,5.32
2024-05-09T03:12:29.068Z,5.27
2024-05-09T03:13:30.674Z,5.25
2024-05-09T03:14:32.288Z,5.22
2024-05-09T03:15:34.023Z,5.19
2024-05-09T03:16:38.766Z,5.18
2024-05-09T03:17:41.422Z,5.17
2024-05-09T03:18:43.265Z,5.14
2024-05-09T03:19:44.960Z,5.13
2024-05-09T03:20:46.614Z,5.12
2024-05-09T03:21:48.201Z,5.13
2024-05-09T03:22:49.853Z,5.13
2024-05-09T03:23:51.746Z,5.17
2024-05-09T03:24:53.312Z,5.17
2024-05-09T03:25:54.961Z,5.11
2024-05-09T03:26:56.574Z,5.12
2024-05-09T03:27:58.228Z,5.09
2024-05-09T03:29:00.018Z,5.08
2024-05-09T03:30:02.024Z,5.05
2024-05-09T03:31:03.658Z,5.03
2024-05-09T03:32:05.608Z,5.02
2024-05-09T03:33:10.695Z,5.01
2024-05-09T03:34:12.689Z,5.01
2024-05-09T03:35:14.438Z,4.98
2024-05-09T03:36:16.015Z,4.99
2024-05-09T03:37:17.570Z,4.94
2024-05-09T03:38:19.150Z,4.94
2024-05-09T03:39:20.755Z,4.90
2024-05-09T03:40:26.535Z,4.88
2024-05-09T03:41:31.052Z,4.91
2024-05-09T03:42:32.691Z,4.94
2024-05-09T03:43:34.218Z,4.97
2024-05-09T03:44:35.831Z,4.92
2024-05-09T03:45:37.478Z,4.91
2024-05-09T03:46:39.710Z,4.90
2024-05-09T03:47:41.606Z,4.88
2024-05-09T03:48:43.718Z,4.91
2024-05-09T03:49:45.361Z,4.91
2024-05-09T03:50:47.132Z,4.91
2024-05-09T03:51:48.818Z,4.91
2024-05-09T03:52:50.639Z,4.90
2024-05-09T03:53:52.220Z,4.92
2024-05-09T03:54:53.783Z,4.93
2024-05-09T03:55:57.178Z,4.93
2024-05-09T03:56:58.750Z,4.91
2024-05-09T03:58:00.331Z,4.93
2024-05-09T03:59:02.067Z,4.96
2024-05-09T04:00:05.513Z,4.98
2024-05-09T04:01:16.520Z,4.94
2024-05-09T04:02:18.191Z,4.93
2024-05-09T04:03:20.051Z,4.93
2024-05-09T04:04:21.994Z,4.92
2024-05-09T04:05:25.607Z,4.97
2024-05-09T04:06:27.688Z,4.98
2024-05-09T04:07:29.231Z,4.98
2024-05-09T04:08:30.930Z,5.00
2024-05-09T04:09:32.548Z,5.01
2024-05-09T04:10:35.171Z,5.02
2024-05-09T04:11:38.361Z,5.03
2024-05-09T04:12:39.988Z,5.06
2024-05-09T04:13:41.627Z,5.07
2024-05-09T04:14:43.210Z,5.09
2024-05-09T04:15:44.766Z,5.06
2024-05-09T04:16:46.398Z,5.06
2024-05-09T04:17:51.365Z,5.06
2024-05-09T04:18:53.732Z,5.09
2024-05-09T04:19:55.821Z,5.10
2024-05-09T04:20:59.371Z,5.13
2024-05-09T04:22:01.561Z,5.13
2024-05-09T04:23:03.231Z,5.15
2024-05-09T04:24:05.251Z,5.17
2024-05-09T04:25:07.063Z,5.19
2024-05-09T04:26:08.824Z,5.22
2024-05-09T04:27:10.410Z,5.19
2024-05-09T04:28:12.152Z,5.21
2024-05-09T04:29:13.782Z,5.21
2024-05-09T04:30:21.884Z,5.23
2024-05-09T04:31:36.059Z,5.27
2024-05-09T04:32:37.741Z,5.30
2024-05-09T04:33:39.507Z,5.36
2024-05-09T04:34:41.218Z,5.38
2024-05-09T04:35:43.713Z,5.41
2024-05-09T04:36:45.647Z,5.43
2024-05-09T04:37:47.230Z,5.50
2024-05-09T04:38:48.817Z,5.54
2024-05-09T04:39:50.377Z,5.59
2024-05-09T04:40:52.005Z,5.66
2024-05-09T04:41:53.899Z,5.77
2024-05-09T04:42:55.599Z,5.80
2024-05-09T04:43:57.185Z,5.90
2024-05-09T04:44:58.930Z,5.93
2024-05-09T04:46:00.883Z,5.99
2024-05-09T04:47:02.475Z,6.04
2024-05-09T04:48:04.595Z,6.06
2024-05-09T04:49:06.608Z,6.13
2024-05-09T04:50:11.592Z,6.22
2024-05-09T04:51:16.238Z,6.37
2024-05-09T04:52:18.090Z,6.51
2024-05-09T04:53:19.741Z,6.68
2024-05-09T04:54:30.388Z,6.81
2024-05-09T04:55:37.942Z,7.02
2024-05-09T04:56:39.646Z,7.14
2024-05-09T04:57:41.283Z,7.32
2024-05-09T04:58:42.914Z,7.60
2024-05-09T04:59:44.492Z,7.80
2024-05-09T05:00:46.142Z,7.96
2024-05-09T05:01:47.889Z,8.14
2024-05-09T05:02:49.628Z,8.24
2024-05-09T05:03:51.537Z,8.39
2024-05-09T05:04:54.195Z,8.50
2024-05-09T05:05:56.157Z,8.66
2024-05-09T05:06:59.729Z,8.75
2024-05-09T05:08:03.703Z,8.92
2024-05-09T05:09:05.276Z,8.92
2024-05-09T05:10:09.352Z,9.07
2024-05-09T05:11:13.722Z,9.13
2024-05-09T05:12:34.175Z,9.15
2024-05-09T05:13:40.124Z,9.39
2024-05-09T05:14:43.016Z,9.56
2024-05-09T05:15:47.562Z,9.49
2024-05-09T05:16:49.217Z,9.52
2024-05-09T05:17:50.898Z,9.58
2024-05-09T05:18:53.098Z,9.79
2024-05-09T05:19:56.963Z,9.88
2024-05-09T05:20:59.265Z,10.01
2024-05-09T05:22:00.931Z,10.06
2024-05-09T05:23:02.491Z,10.17
2024-05-09T05:24:04.274Z,10.30
2024-05-09T05:25:06.217Z,10.46
2024-05-09T05:26:07.874Z,10.46
2024-05-09T05:27:09.490Z,10.68
2024-05-09T05:28:11.075Z,10.72
2024-05-09T05:29:12.681Z,10.74
2024-05-09T05:30:21.204Z,10.76
2024-05-09T05:31:27.037Z,10.78
2024-05-09T05:32:28.903Z,10.72
2024-05-09T05:33:30.976Z,11.08
2024-05-09T05:34:33.026Z,11.30
2024-05-09T05:35:34.959Z,11.60
2024-05-09T05:36:36.649Z,11.80
2024-05-09T05:37:38.190Z,11.69
2024-05-09T05:38:40.526Z,11.90
2024-05-09T05:39:42.419Z,11.73
2024-05-09T05:40:44.067Z,11.88
2024-05-09T05:41:45.683Z,12.20
2024-05-09T05:42:47.498Z,11.89
2024-05-09T05:43:49.170Z,11.95
2024-05-09T05:44:51.044Z,12.25
2024-05-09T05:45:52.649Z,12.47
2024-05-09T05:46:54.273Z,12.65
2024-05-09T05:47:56.857Z,12.61
2024-05-09T05:48:58.777Z,12.69
2024-05-09T05:50:00.497Z,12.93
2024-05-09T05:51:04.315Z,12.97
2024-05-09T05:52:06.569Z,13.31
2024-05-09T05:53:10.078Z,13.35
2024-05-09T05:54:12.122Z,13.46
2024-05-09T05:55:13.751Z,13.67
2024-05-09T05:56:15.376Z,13.66
2024-05-09T05:57:17.324Z,13.63
2024-05-09T05:58:20.216Z,13.61
2024-05-09T05:59:23.987Z,13.89
2024-05-09T06:00:30.108Z,13.89
2024-05-09T06:01:39.074Z,13.55
2024-05-09T06:02:40.805Z,13.71
2024-05-09T06:03:42.677Z,13.58
2024-05-09T06:04:44.528Z,13.70
2024-05-09T06:05:47.082Z,13.72
2024-05-09T06:06:49.064Z,13.82
2024-05-09T06:07:50.828Z,13.77
2024-05-09T06:08:52.697Z,13.82
2024-05-09T06:09:54.264Z,13.58
2024-05-09T06:10:55.919Z,13.74
2024-05-09T06:11:57.611Z,13.90
2024-05-09T06:12:59.193Z,14.07
2024-05-09T06:14:01.513Z,13.99
2024-05-09T06:15:03.408Z,13.84
2024-05-09T06:16:05.515Z,13.63
2024-05-09T06:17:07.096Z,13.50
2024-05-09T06:18:10.763Z,13.52
2024-05-09T06:19:14.790Z,13.51
2024-05-09T06:20:23.857Z,13.36
2024-05-09T06:21:33.230Z,13.52
2024-05-09T06:22:35.153Z,13.58
2024-05-09T06:23:36.883Z,13.81
2024-05-09T06:24:38.497Z,13.75
2024-05-09T06:25:40.595Z,13.81
2024-05-09T06:26:42.736Z,13.77
2024-05-09T06:27:44.425Z,13.79
2024-05-09T06:28:46.150Z,13.87
2024-05-09T06:29:47.872Z,13.85
2024-05-09T06:30:49.693Z,13.87
2024-05-09T06:31:51.267Z,13.73
2024-05-09T06:32:52.941Z,13.22
2024-05-09T06:33:54.674Z,13.15
2024-05-09T06:34:56.374Z,13.00
2024-05-09T06:36:01.237Z,13.23
2024-05-09T06:37:02.863Z,13.16
2024-05-09T06:38:05.053Z,13.07
2024-05-09T06:39:06.837Z,12.68
2024-05-09T06:40:09.953Z,13.11
2024-05-09T06:41:12.417Z,13.29
2024-05-09T06:42:14.019Z,13.43
2024-05-09T06:43:18.153Z,13.38
2024-05-09T06:44:21.048Z,13.24
2024-05-09T06:45:22.641Z,13.13
2024-05-09T06:46:25.589Z,13.16
2024-05-09T06:47:27.269Z,13.38
2024-05-09T06:48:29.468Z,13.23
2024-05-09T06:49:31.703Z,13.52
2024-05-09T06:50:37.590Z,13.56
2024-05-09T06:51:41.239Z,13.41
2024-05-09T06:52:46.915Z,13.49
2024-05-09T06:53:48.579Z,13.31
2024-05-09T06:54:50.188Z,13.37
2024-05-09T06:55:51.835Z,13.68
2024-05-09T06:56:53.470Z,13.71
2024-05-09T06:57:55.033Z,14.01
2024-05-09T06:58:56.693Z,13.71
2024-05-09T07:00:00.596Z,13.70
2024-05-09T07:01:03.728Z,13.75
2024-05-09T07:02:05.476Z,13.60
2024-05-09T07:03:12.777Z,13.78
2024-05-09T07:04:15.969Z,13.87
2024-05-09T07:05:17.752Z,14.03
2024-05-09T07:06:19.451Z,14.03
2024-05-09T07:07:21.003Z,13.84
2024-05-09T07:08:22.592Z,14.00
2024-05-09T07:09:24.225Z,13.90
2024-05-09T07:10:32.460Z,13.82
2024-05-09T07:11:37.404Z,13.75
2024-05-09T07:12:39.030Z,13.78
2024-05-09T07:13:40.606Z,13.78
2024-05-09T07:14:42.229Z,13.50
2024-05-09T07:15:43.964Z,13.74
2024-05-09T07:16:45.594Z,13.98
2024-05-09T07:17:47.281Z,13.98
2024-05-09T07:18:54.845Z,13.87
2024-05-09T07:19:56.612Z,13.90
2024-05-09T07:20:58.273Z,13.90
2024-05-09T07:22:00.000Z,13.84
2024-05-09T07:23:03.110Z,13.87
2024-05-09T07:24:05.237Z,14.06
2024-05-09T07:25:07.010Z,14.01
2024-05-09T07:26:08.636Z,14.02
2024-05-09T07:27:10.218Z,13.82
2024-05-09T07:28:19.718Z,13.69
2024-05-09T07:29:21.427Z,13.65
2024-05-09T07:30:27.873Z,13.53
2024-05-09T07:31:34.752Z,13.82
2024-05-09T07:32:36.418Z,13.78
2024-05-09T07:33:38.164Z,13.73
2024-05-09T07:34:39.788Z,13.86
2024-05-09T07:35:41.521Z,14.05
2024-05-09T07:36:43.357Z,14.17
2024-05-09T07:37:45.053Z,14.12
2024-05-09T07:38:47.485Z,14.26
2024-05-09T07:39:49.094Z,14.12
2024-05-09T07:40:50.810Z,14.34
2024-05-09T07:41:52.382Z,14.50
2024-05-09T07:42:53.980Z,14.69
2024-05-09T07:43:55.573Z,14.64
2024-05-09T07:45:11.204Z,14.43
2024-05-09T07:47:14.468Z,14.43
2024-05-09T07:49:11.947Z,14.63
2024-05-09T07:50:53.142Z,14.68
2024-05-09T07:53:32.772Z,14.69
2024-05-09T07:53:57.144Z,14.67
2024-05-09T07:55:01.559Z,14.49
2024-05-09T07:56:03.637Z,14.66
2024-05-09T07:57:05.492Z,14.71
2024-05-09T07:58:07.122Z,14.82
2024-05-09T07:59:08.917Z,14.85
2024-05-09T08:00:14.348Z,15.10
2024-05-09T08:01:16.205Z,14.85
2024-05-09T08:02:17.989Z,14.90
2024-05-09T08:03:19.818Z,14.95
2024-05-09T08:04:22.985Z,15.10
2024-05-09T08:05:25.945Z,14.96
2024-05-09T08:06:27.890Z,15.08
2024-05-09T08:07:29.775Z,15.04
2024-05-09T08:08:31.357Z,15.37
2024-05-09T08:09:33.560Z,15.40
2024-05-09T08:10:35.904Z,15.48
2024-05-09T08:11:37.851Z,15.63
2024-05-09T08:12:39.465Z,15.40
2024-05-09T08:13:41.210Z,15.25
2024-05-09T08:14:42.802Z,15.25
2024-05-09T08:15:44.559Z,15.35
2024-05-09T08:16:46.242Z,15.59
2024-05-09T08:17:49.074Z,15.54
2024-05-09T08:18:50.811Z,15.35
2024-05-09T08:19:52.586Z,15.50
2024-05-09T08:20:54.181Z,15.58
2024-05-09T08:21:55.875Z,15.58
2024-05-09T08:22:57.470Z,15.77
2024-05-09T08:24:00.205Z,15.71
2024-05-09T08:25:02.287Z,15.47
2024-05-09T08:26:04.084Z,15.28
2024-05-09T08:27:05.637Z,15.14
2024-05-09T08:28:07.403Z,15.19
2024-05-09T08:29:09.962Z,15.30
2024-05-09T08:30:18.968Z,15.47
2024-05-09T08:31:27.247Z,15.51
2024-05-09T08:32:32.088Z,15.74
2024-05-09T08:33:33.982Z,15.80
2024-05-09T08:34:35.723Z,15.85
2024-05-09T08:35:37.642Z,15.65
2024-05-09T08:36:40.817Z,15.57
2024-05-09T08:37:43.663Z,15.78
2024-05-09T08:38:45.393Z,16.11
2024-05-09T08:39:46.981Z,16.03
2024-05-09T08:40:49.113Z,16.00
2024-05-09T08:41:53.528Z,16.10
2024-05-09T08:42:57.295Z,15.81
2024-05-09T08:43:58.978Z,16.29
2024-05-09T08:45:00.869Z,16.17
2024-05-09T08:46:06.210Z,16.09
2024-05-09T08:47:09.814Z,16.01
2024-05-09T08:48:14.528Z,16.18
2024-05-09T08:49:17.699Z,16.29
2024-05-09T08:50:31.486Z,16.22
2024-05-09T08:51:39.254Z,16.20
2024-05-09T08:52:40.867Z,16.53
2024-05-09T08:53:42.549Z,16.35
2024-05-09T08:54:45.021Z,16.47
2024-05-09T08:55:47.056Z,16.00
2024-05-09T08:56:51.228Z,16.43
2024-05-09T08:57:53.593Z,16.42
2024-05-09T08:59:00.968Z,16.71
2024-05-09T09:00:09.947Z,16.43
2024-05-09T09:01:14.223Z,16.62
2024-05-09T09:02:16.386Z,16.87
2024-05-09T09:03:19.613Z,16.72
2024-05-09T09:04:23.522Z,17.03
2024-05-09T09:05:29.709Z,17.16
2024-05-09T09:06:33.919Z,17.10
2024-05-09T09:07:38.681Z,16.69
2024-05-09T09:08:40.646Z,16.81
2024-05-09T09:09:45.439Z,17.02
2024-05-09T09:10:47.768Z,16.89
2024-05-09T09:11:49.453Z,16.79
2024-05-09T09:12:57.968Z,16.92
2024-05-09T09:13:59.551Z,17.03
2024-05-09T09:15:01.200Z,17.03
2024-05-09T09:16:03.564Z,17.26
2024-05-09T09:17:16.002Z,17.33
2024-05-09T09:18:18.997Z,17.30
2024-05-09T09:19:22.873Z,17.28
2024-05-09T09:20:35.921Z,17.71
2024-05-09T09:21:38.904Z,17.37
2024-05-09T09:22:40.476Z,17.43
2024-05-09T09:23:42.050Z,17.55
2024-05-09T09:24:43.641Z,17.68
2024-05-09T09:25:45.314Z,17.43
2024-05-09T09:26:47.122Z,17.87
2024-05-09T09:27:48.788Z,17.75
2024-05-09T09:28:50.488Z,17.83
2024-05-09T09:29:52.094Z,17.21
2024-05-09T09:30:54.044Z,17.29
2024-05-09T09:32:04.042Z,17.61
2024-05-09T09:33:07.998Z,17.40
2024-05-09T09:34:09.950Z,17.45
2024-05-09T09:35:11.656Z,17.34
2024-05-09T09:36:14.309Z,17.12
2024-05-09T09:37:20.790Z,17.51
2024-05-09T09:38:23.346Z,17.40
2024-05-09T09:39:28.082Z,17.06
2024-05-09T09:40:37.111Z,17.26
2024-05-09T09:41:46.574Z,17.29
2024-05-09T09:42:50.252Z,17.21
2024-05-09T09:43:53.718Z,17.35
2024-05-09T09:45:04.300Z,17.84
2024-05-09T09:46:11.716Z,18.02
2024-05-09T09:47:15.771Z,18.56
2024-05-09T09:48:17.823Z,17.77
2024-05-09T09:49:19.606Z,17.98
2024-05-09T09:50:27.883Z,17.71
2024-05-09T09:51:36.565Z,17.48
2024-05-09T09:52:38.758Z,17.05
2024-05-09T09:53:42.402Z,17.03
2024-05-09T09:54:45.071Z,16.60
2024-05-09T09:55:47.230Z,16.78
2024-05-09T09:56:51.091Z,16.91
2024-05-09T09:57:56.015Z,17.29
2024-05-09T09:58:59.910Z,17.75
2024-05-09T10:00:01.678Z,17.74
2024-05-09T10:01:13.897Z,17.80
2024-05-09T10:02:17.488Z,17.44
2024-05-09T10:03:53.260Z,17.17
2024-05-09T10:04:55.205Z,16.86
2024-05-09T10:05:58.046Z,16.55
2024-05-09T10:07:04.394Z,16.64
2024-05-09T10:08:07.913Z,16.83
2024-05-09T10:09:14.120Z,16.99
2024-05-09T10:10:31.972Z,17.43
2024-05-09T10:11:39.769Z,17.48
2024-05-09T10:13:00.937Z,17.92
2024-05-09T10:14:02.711Z,17.87
2024-05-09T10:15:11.207Z,18.05
2024-05-09T10:16:12.867Z,18.17
2024-05-09T10:17:15.184Z,17.81
2024-05-09T10:18:17.428Z,18.30
2024-05-09T10:19:23.683Z,18.70
2024-05-09T10:20:30.684Z,18.64
2024-05-09T10:21:34.079Z,18.91
2024-05-09T10:22:35.753Z,19.12
2024-05-09T10:23:37.551Z,19.62
2024-05-09T10:24:53.206Z,19.66
2024-05-09T10:25:59.903Z,19.22
2024-05-09T10:27:03.993Z,18.69
2024-05-09T10:28:05.933Z,18.49
2024-05-09T10:29:15.654Z,18.25
2024-05-09T10:30:29.752Z,18.17
2024-05-09T10:31:41.305Z,18.67
2024-05-09T10:32:44.806Z,18.84
2024-05-09T10:33:52.521Z,18.97
2024-05-09T10:35:08.418Z,19.34
2024-05-09T10:36:20.783Z,19.41
2024-05-09T10:37:22.946Z,19.60
2024-05-09T10:38:24.914Z,19.73
2024-05-09T10:39:26.796Z,20.04
2024-05-09T10:40:31.510Z,20.19
2024-05-09T10:41:34.090Z,20.74
2024-05-09T10:42:41.925Z,21.14
2024-05-09T10:43:43.664Z,21.23
2024-05-09T10:44:45.204Z,21.47
2024-05-09T10:45:46.833Z,21.53
2024-05-09T10:46:50.303Z,21.73
2024-05-09T10:47:52.166Z,21.43
2024-05-09T10:48:54.329Z,21.16
2024-05-09T10:49:57.143Z,20.83
2024-05-09T10:50:58.875Z,21.19
2024-05-09T10:52:04.193Z,21.15
2024-05-09T10:53:05.843Z,21.70
2024-05-09T10:54:07.779Z,22.03
2024-05-09T10:55:09.392Z,21.36
2024-05-09T10:56:14.684Z,20.46
2024-05-09T10:57:17.094Z,20.24
2024-05-09T10:58:19.089Z,19.63
2024-05-09T10:59:20.657Z,19.16
2024-05-09T11:00:27.821Z,18.99
2024-05-09T11:01:35.516Z,18.82
2024-05-09T11:02:37.333Z,18.61
2024-05-09T11:03:40.104Z,18.27
2024-05-09T11:04:42.369Z,18.03
2024-05-09T11:05:44.277Z,18.16
2024-05-09T11:06:47.102Z,18.67
2024-05-09T11:07:48.860Z,19.35
2024-05-09T11:08:50.887Z,20.14
2024-05-09T11:09:52.893Z,20.37
2024-05-09T11:10:55.954Z,19.98
2024-05-09T11:11:57.946Z,19.64
2024-05-09T11:12:59.556Z,19.43
2024-05-09T11:14:11.695Z,18.61
2024-05-09T11:15:13.348Z,18.13
2024-05-09T11:16:20.941Z,17.98
2024-05-09T11:17:23.153Z,18.15
2024-05-09T11:18:28.175Z,18.21
2024-05-09T11:19:37.020Z,18.09
2024-05-09T11:20:38.975Z,18.17
2024-05-09T11:21:40.716Z,18.30
2024-05-09T11:22:42.970Z,18.90
2024-05-09T11:23:44.586Z,19.47
2024-05-09T11:24:46.181Z,19.78
2024-05-09T11:26:05.590Z,19.99
2024-05-09T11:27:07.132Z,19.85
2024-05-09T11:28:08.764Z,19.83
2024-05-09T11:29:10.352Z,20.00
2024-05-09T11:30:26.642Z,20.04
2024-05-09T11:31:35.318Z,20.19
2024-05-09T11:32:37.484Z,20.48
2024-05-09T11:33:41.350Z,20.54
2024-05-09T11:34:43.183Z,20.31
2024-05-09T11:35:46.450Z,20.20
2024-05-09T11:36:48.153Z,19.94
2024-05-09T11:37:49.754Z,19.64
2024-05-09T11:38:51.393Z,19.61
2024-05-09T11:39:54.154Z,19.38
2024-05-09T11:40:55.815Z,19.54
2024-05-09T11:41:57.932Z,20.05
2024-05-09T11:42:59.770Z,20.38
2024-05-09T11:44:01.826Z,20.64
2024-05-09T11:45:03.627Z,20.89
2024-05-09T11:46:05.496Z,20.74
2024-05-09T11:47:07.388Z,20.75
2024-05-09T11:48:09.279Z,21.09
2024-05-09T11:49:11.008Z,21.43
2024-05-09T11:50:19.584Z,21.24
2024-05-09T11:51:28.520Z,21.13
2024-05-09T11:52:30.159Z,20.70
2024-05-09T11:53:31.742Z,20.85
2024-05-09T11:54:33.380Z,20.64
2024-05-09T11:55:38.134Z,20.17
2024-05-09T11:56:40.736Z,20.09
2024-05-09T11:57:42.385Z,20.28
2024-05-09T11:58:44.482Z,20.47
2024-05-09T11:59:46.052Z,20.21
2024-05-09T12:00:47.767Z,20.38
2024-05-09T12:01:49.689Z,21.09
2024-05-09T12:02:52.815Z,21.60
2024-05-09T12:03:55.055Z,21.97
2024-05-09T12:04:56.768Z,22.13
2024-05-09T12:05:58.600Z,21.83
2024-05-09T12:07:00.362Z,21.39
2024-05-09T12:08:02.504Z,21.58
2024-05-09T12:09:04.371Z,20.99
2024-05-09T12:10:11.662Z,21.29
2024-05-09T12:11:16.277Z,21.13
2024-05-09T12:12:18.031Z,20.90
2024-05-09T12:13:19.783Z,20.44
2024-05-09T12:14:21.500Z,19.96
2024-05-09T12:15:23.031Z,19.67
2024-05-09T12:16:24.977Z,19.61
2024-05-09T12:17:26.758Z,19.65
2024-05-09T12:18:28.480Z,19.88
2024-05-09T12:19:30.159Z,19.92
2024-05-09T12:20:37.390Z,19.80
2024-05-09T12:21:41.186Z,19.87
2024-05-09T12:22:42.749Z,20.16
2024-05-09T12:23:44.296Z,20.27
2024-05-09T12:24:45.909Z,20.27
2024-05-09T12:25:47.539Z,20.28
2024-05-09T12:26:49.360Z,19.98
2024-05-09T12:27:51.456Z,19.80
2024-05-09T12:28:53.275Z,19.37
2024-05-09T12:29:55.176Z,19.14
2024-05-09T12:30:56.732Z,18.68
2024-05-09T12:31:58.350Z,18.88
2024-05-09T12:33:00.046Z,18.93
2024-05-09T12:34:02.104Z,19.00
2024-05-09T12:35:04.021Z,19.02
2024-05-09T12:36:05.943Z,18.78
2024-05-09T12:37:07.626Z,18.88
2024-05-09T12:38:09.335Z,19.26
2024-05-09T12:39:10.928Z,19.62
2024-05-09T12:40:18.786Z,20.43
2024-05-09T12:41:28.240Z,20.97
2024-05-09T12:42:31.348Z,20.63
2024-05-09T12:43:34.843Z,20.64
2024-05-09T12:44:36.443Z,20.89
2024-05-09T12:45:38.633Z,20.78
2024-05-09T12:46:40.513Z,20.54
2024-05-09T12:47:42.198Z,20.12
2024-05-09T12:48:44.311Z,20.50
2024-05-09T12:49:46.052Z,21.05
2024-05-09T12:50:47.842Z,21.12
2024-05-09T12:51:49.732Z,21.21
2024-05-09T12:52:51.390Z,21.60
2024-05-09T12:53:52.961Z,21.38
2024-05-09T12:54:54.836Z,21.15
2024-05-09T12:56:00.202Z,21.16
2024-05-09T12:57:04.189Z,20.93
2024-05-09T12:58:05.967Z,20.39
2024-05-09T12:59:07.862Z,20.41
2024-05-09T13:00:20.203Z,20.15
2024-05-09T13:01:25.496Z,20.01
2024-05-09T13:02:27.294Z,19.81
2024-05-09T13:03:29.271Z,19.65
2024-05-09T13:04:31.063Z,19.65
2024-05-09T13:05:32.916Z,19.65
2024-05-09T13:06:34.643Z,19.61
2024-05-09T13:07:36.416Z,19.72
2024-05-09T13:08:38.142Z,19.38
2024-05-09T13:09:39.998Z,19.40
2024-05-09T13:10:42.043Z,19.30
2024-05-09T13:11:43.839Z,19.14
2024-05-09T13:12:45.467Z,19.25
2024-05-09T13:13:47.062Z,19.35
2024-05-09T13:14:48.654Z,19.72
2024-05-09T13:15:50.299Z,19.67
2024-05-09T13:16:51.967Z,19.72
2024-05-09T13:17:54.796Z,19.73
2024-05-09T13:18:57.430Z,19.88
2024-05-09T13:19:59.218Z,19.77
2024-05-09T13:21:01.074Z,19.92
2024-05-09T13:22:02.634Z,19.67
2024-05-09T13:23:05.889Z,19.77
2024-05-09T13:24:08.548Z,19.52
2024-05-09T13:25:10.180Z,19.73
2024-05-09T13:26:11.792Z,19.72
2024-05-09T13:27:13.400Z,19.73
2024-05-09T13:28:15.255Z,19.92
2024-05-09T13:29:16.894Z,19.62
2024-05-09T13:30:26.333Z,19.73
2024-05-09T13:31:36.096Z,19.55
2024-05-09T13:32:37.788Z,19.74
2024-05-09T13:33:39.557Z,19.94
2024-05-09T13:34:41.291Z,19.71
2024-05-09T13:35:47.286Z,19.81
2024-05-09T13:36:52.099Z,20.13
2024-05-09T13:37:53.806Z,20.23
2024-05-09T13:38:56.503Z,20.14
2024-05-09T13:39:58.157Z,20.28
2024-05-09T13:40:59.781Z,20.37
2024-05-09T13:42:01.354Z,20.23
2024-05-09T13:43:04.548Z,19.73
2024-05-09T13:44:06.561Z,19.51
2024-05-09T13:45:08.382Z,19.23
2024-05-09T13:46:10.123Z,19.08
2024-05-09T13:47:12.448Z,19.04